createdAt,value
2023-01-21T00:00:54.151Z,5.53
2023-01-21T00:03:41.566Z,5.54
2023-01-21T00:06:15.063Z,5.52
2023-01-21T00:08:50.357Z,5.39
2023-01-21T00:11:21.681Z,5.57
2023-01-21T00:13:53.381Z,5.40
2023-01-21T00:16:40.696Z,5.45
2023-01-21T00:19:24.113Z,5.42
2023-01-21T00:22:01.680Z,5.44
2023-01-21T00:24:38.344Z,5.47
2023-01-21T00:29:54.848Z,5.35
2023-01-21T00:32:44.111Z,5.48
2023-01-21T00:35:18.893Z,5.64
2023-01-21T00:37:55.233Z,5.49
2023-01-21T00:40:40.053Z,5.53
2023-01-21T00:43:16.678Z,5.53
2023-01-21T00:45:51.723Z,5.47
2023-01-21T00:51:25.546Z,5.48
2023-01-21T00:59:57.575Z,5.35
2023-01-21T01:02:24.984Z,5.41
2023-01-21T01:04:52.377Z,5.43
2023-01-21T01:07:19.712Z,5.35
2023-01-21T01:09:47.133Z,5.34
2023-01-21T01:12:14.574Z,5.39
2023-01-21T01:14:41.960Z,5.34
2023-01-21T01:17:09.426Z,5.28
2023-01-21T01:19:36.801Z,5.34
2023-01-21T01:22:04.163Z,5.51
2023-01-21T01:24:31.801Z,5.63
2023-01-21T01:26:59.259Z,5.56
2023-01-21T01:29:26.727Z,5.43
2023-01-21T01:31:54.117Z,5.36
2023-01-21T01:34:21.653Z,5.35
2023-01-21T01:36:55.143Z,5.64
2023-01-21T01:39:22.578Z,5.41
2023-01-21T01:41:50.216Z,5.35
2023-01-21T01:44:56.221Z,5.48
2023-01-21T01:47:38.835Z,5.39
2023-01-21T01:50:06.449Z,5.37
2023-01-21T01:52:34.101Z,5.29
2023-01-21T01:55:03.714Z,5.32
2023-01-21T01:57:39.377Z,5.44
2023-01-21T02:00:11.209Z,5.31
2023-01-21T02:02:43.504Z,5.37
2023-01-21T02:05:11.389Z,5.17
2023-01-21T02:07:43.819Z,5.19
2023-01-21T02:10:14.445Z,5.15
2023-01-21T02:12:44.056Z,5.18
2023-01-21T02:15:11.794Z,5.00
2023-01-21T02:18:17.379Z,5.31
2023-01-21T02:21:41.666Z,5.32
2023-01-21T02:24:42.872Z,5.20
2023-01-21T02:27:36.382Z,5.11
2023-01-21T02:30:18.980Z,4.82
2023-01-21T02:33:23.703Z,4.94
2023-01-21T02:37:02.459Z,4.75
2023-01-21T02:39:50.669Z,4.86
2023-01-21T02:42:41.794Z,4.71
2023-01-21T02:45:16.598Z,4.57
2023-01-21T02:48:14.133Z,4.78
2023-01-21T02:50:50.987Z,4.70
2023-01-21T02:53:38.683Z,4.66
2023-01-21T02:56:12.810Z,4.75
2023-01-21T02:58:45.999Z,4.61
2023-01-21T03:01:34.837Z,4.65
2023-01-21T03:04:20.405Z,4.57
2023-01-21T03:06:49.281Z,4.50
2023-01-21T03:09:30.349Z,4.53
2023-01-21T03:12:08.602Z,4.53
2023-01-21T03:15:20.910Z,4.51
2023-01-21T03:18:15.228Z,4.53
2023-01-21T03:20:52.579Z,4.52
2023-01-21T03:23:30.602Z,4.55
2023-01-21T03:26:00.352Z,4.43
2023-01-21T03:28:32.859Z,4.47
2023-01-21T03:31:18.599Z,4.47
2023-01-21T03:33:48.891Z,4.37
2023-01-21T03:37:13.754Z,4.46
2023-01-21T03:40:05.531Z,4.49
2023-01-21T03:42:32.951Z,4.32
2023-01-21T03:45:00.671Z,4.31
2023-01-21T03:47:31.385Z,4.33
2023-01-21T03:50:12.771Z,4.44
2023-01-21T03:52:44.862Z,4.41
2023-01-21T03:55:15.854Z,4.34
2023-01-21T03:57:43.254Z,4.29
2023-01-21T04:00:11.329Z,4.27
2023-01-21T04:02:39.234Z,4.26
2023-01-21T04:05:06.985Z,4.02
2023-01-21T04:07:34.390Z,4.11
2023-01-21T04:10:01.739Z,4.24
2023-01-21T04:12:29.176Z,4.14
2023-01-21T04:14:57.137Z,4.14
2023-01-21T04:17:24.567Z,4.06
2023-01-21T04:19:52.154Z,4.20
2023-01-21T04:22:20.621Z,4.31
2023-01-21T04:24:48.002Z,4.32
2023-01-21T04:27:15.367Z,4.18
2023-01-21T04:29:42.719Z,4.03
2023-01-21T04:32:10.112Z,4.14
2023-01-21T04:34:37.463Z,4.04
2023-01-21T04:37:04.859Z,4.17
2023-01-21T04:39:32.198Z,4.19
2023-01-21T04:41:59.600Z,4.15
2023-01-21T04:44:26.979Z,4.01
2023-01-21T04:46:54.387Z,4.12
2023-01-21T04:49:21.725Z,4.05
2023-01-21T04:51:49.068Z,3.96
2023-01-21T04:54:16.446Z,4.14
2023-01-21T04:56:43.782Z,4.06
2023-01-21T04:59:11.709Z,4.03
2023-01-21T05:01:39.065Z,4.05
2023-01-21T05:04:06.380Z,3.92
2023-01-21T05:06:33.828Z,3.96
2023-01-21T05:09:01.210Z,4.02
2023-01-21T05:11:28.730Z,3.95
2023-01-21T05:13:56.072Z,4.03
2023-01-21T05:16:23.494Z,3.89
2023-01-21T05:18:50.804Z,3.99
2023-01-21T05:21:18.190Z,3.97
2023-01-21T05:23:45.601Z,3.87
2023-01-21T05:26:12.930Z,3.93
2023-01-21T05:28:40.373Z,3.95
2023-01-21T05:31:07.885Z,3.36
2023-01-21T05:33:35.906Z,3.78
2023-01-21T05:36:03.705Z,3.74
2023-01-21T05:38:31.110Z,3.57
2023-01-21T05:41:02.717Z,3.85
2023-01-21T05:43:30.249Z,3.93
2023-01-21T05:45:57.874Z,3.95
2023-01-21T05:48:25.360Z,3.75
2023-01-21T05:50:52.981Z,3.80
2023-01-21T05:53:20.408Z,3.51
2023-01-21T05:55:52.738Z,3.73
2023-01-21T05:58:20.302Z,3.96
2023-01-21T06:00:48.521Z,3.62
2023-01-21T06:03:17.476Z,3.57
2023-01-21T06:05:45.831Z,3.75
2023-01-21T06:08:13.431Z,3.80
2023-01-21T06:10:40.817Z,3.71
2023-01-21T06:13:08.866Z,3.79
2023-01-21T06:15:36.359Z,3.78
2023-01-21T06:18:03.810Z,3.79
2023-01-21T06:20:31.538Z,3.81
2023-01-21T06:22:59.083Z,3.90
2023-01-21T06:25:27.138Z,3.87
2023-01-21T06:27:58.395Z,3.89
2023-01-21T06:30:26.248Z,3.87
2023-01-21T06:32:53.783Z,3.74
2023-01-21T06:35:21.228Z,3.00
2023-01-21T06:37:48.594Z,3.64
2023-01-21T06:40:16.683Z,2.78
2023-01-21T06:42:47.468Z,3.48
2023-01-21T06:45:15.575Z,3.54
2023-01-21T06:47:43.747Z,3.36
2023-01-21T06:50:17.620Z,3.57
2023-01-21T06:52:47.247Z,3.68
2023-01-21T06:55:15.929Z,3.62
2023-01-21T06:57:43.961Z,3.64
2023-01-21T07:00:12.717Z,3.75
2023-01-21T07:02:40.134Z,3.81
2023-01-21T07:05:07.983Z,2.90
2023-01-21T07:07:35.445Z,3.52
2023-01-21T07:10:03.162Z,3.61
2023-01-21T07:12:30.614Z,3.75
2023-01-21T07:14:57.979Z,3.44
2023-01-21T07:17:25.345Z,3.52
2023-01-21T07:19:52.707Z,3.56
2023-01-21T07:22:20.120Z,3.65
2023-01-21T07:24:47.722Z,3.67
2023-01-21T07:27:15.158Z,3.88
2023-01-21T07:29:42.569Z,3.87
2023-01-21T07:32:10.018Z,3.68
2023-01-21T07:34:37.413Z,3.69
2023-01-21T07:37:04.726Z,2.96
2023-01-21T07:39:32.095Z,2.67
2023-01-21T07:41:59.448Z,3.24
2023-01-21T07:44:27.569Z,3.61
2023-01-21T07:46:55.036Z,3.49
2023-01-21T07:49:22.428Z,3.42
2023-01-21T07:51:49.833Z,3.72
2023-01-21T07:54:17.261Z,3.93
2023-01-21T07:56:44.699Z,3.76
2023-01-21T07:59:13.406Z,3.79
2023-01-21T08:01:41.058Z,4.22
2023-01-21T08:04:09.798Z,4.03
2023-01-21T08:06:41.519Z,4.27
2023-01-21T08:09:10.055Z,4.21
2023-01-21T08:11:37.430Z,3.97
2023-01-21T08:14:05.556Z,3.98
2023-01-21T08:16:33.015Z,3.93
2023-01-21T08:19:00.711Z,4.07
2023-01-21T08:21:28.103Z,3.96
2023-01-21T08:23:55.515Z,3.99
2023-01-21T08:26:25.524Z,3.97
2023-01-21T08:28:56.169Z,4.09
2023-01-21T08:31:23.703Z,4.08
2023-01-21T08:33:51.176Z,4.06
2023-01-21T08:36:18.727Z,4.06
2023-01-21T08:38:48.560Z,3.82
2023-01-21T08:41:17.763Z,4.11
2023-01-21T08:43:45.197Z,4.06
2023-01-21T08:46:13.202Z,3.77
2023-01-21T08:48:40.739Z,4.05
2023-01-21T08:51:16.036Z,3.94
2023-01-21T08:53:43.446Z,4.06
2023-01-21T08:56:10.831Z,4.05
2023-01-21T08:58:41.776Z,4.16
2023-01-21T09:01:11.246Z,4.00
2023-01-21T09:03:38.787Z,3.91
2023-01-21T09:06:08.295Z,4.09
2023-01-21T09:08:36.554Z,3.97
2023-01-21T09:11:06.793Z,3.94
2023-01-21T09:13:37.480Z,3.91
2023-01-21T09:16:16.813Z,4.24
2023-01-21T09:18:44.988Z,3.97
2023-01-21T09:21:13.170Z,3.82
2023-01-21T09:23:44.433Z,3.95
2023-01-21T09:26:18.060Z,4.16
2023-01-21T09:28:51.641Z,4.27
2023-01-21T09:31:23.915Z,4.15
2023-01-21T09:33:52.872Z,4.43
2023-01-21T09:36:22.549Z,4.27
2023-01-21T09:38:50.531Z,4.11
2023-01-21T09:41:50.679Z,4.39
2023-01-21T09:44:43.871Z,4.31
2023-01-21T09:47:32.043Z,3.78
2023-01-21T09:50:06.014Z,3.93
2023-01-21T09:53:00.031Z,4.32
2023-01-21T09:55:42.003Z,4.33
2023-01-21T09:58:21.552Z,3.99
2023-01-21T10:00:59.175Z,3.96
2023-01-21T10:03:41.005Z,4.40
2023-01-21T10:06:43.809Z,4.46
2023-01-21T10:09:38.309Z,4.70
2023-01-21T10:12:11.945Z,3.81
2023-01-21T10:14:55.482Z,4.54
2023-01-21T10:17:29.970Z,4.45
2023-01-21T10:20:29.376Z,4.70
2023-01-21T10:22:59.865Z,4.69
2023-01-21T10:25:34.455Z,4.45
2023-01-21T10:28:15.079Z,4.52
2023-01-21T10:30:52.095Z,4.37
2023-01-21T10:33:27.783Z,4.46
2023-01-21T10:36:10.203Z,4.38
2023-01-21T10:39:17.516Z,4.78
2023-01-21T10:42:14.635Z,4.57
2023-01-21T10:45:13.843Z,4.40
2023-01-21T10:47:56.562Z,4.43
2023-01-21T10:50:48.246Z,4.55
2023-01-21T10:53:33.524Z,4.54
2023-01-21T10:56:33.979Z,4.42
2023-01-21T10:59:13.346Z,4.35
2023-01-21T11:01:47.905Z,4.28
2023-01-21T11:04:20.149Z,4.53
2023-01-21T11:07:01.449Z,4.57
2023-01-21T11:09:41.288Z,4.58
2023-01-21T11:12:16.677Z,4.72
2023-01-21T11:15:05.270Z,4.36
2023-01-21T11:17:41.734Z,4.08
2023-01-21T11:20:23.510Z,4.33
2023-01-21T11:22:51.507Z,3.81
2023-01-21T11:25:26.618Z,4.02
2023-01-21T11:27:55.173Z,4.22
2023-01-21T11:30:50.610Z,4.30
2023-01-21T11:33:28.217Z,4.11
2023-01-21T11:35:56.255Z,4.10
2023-01-21T11:38:35.411Z,4.18
2023-01-21T11:41:18.133Z,3.92
2023-01-21T11:43:54.308Z,4.04
2023-01-21T11:46:37.518Z,3.91
2023-01-21T11:49:07.866Z,4.13
2023-01-21T11:51:40.084Z,4.04
2023-01-21T11:54:14.381Z,4.14
2023-01-21T11:56:51.712Z,3.90
2023-01-21T11:59:27.337Z,3.95
2023-01-21T12:02:18.392Z,4.29
2023-01-21T12:05:02.138Z,4.27
2023-01-21T12:07:33.251Z,4.14
2023-01-21T12:10:13.053Z,4.09
2023-01-21T12:13:20.331Z,4.30
2023-01-21T12:16:26.332Z,4.24
2023-01-21T12:19:18.320Z,3.99
2023-01-21T12:22:13.945Z,4.07
2023-01-21T12:25:21.319Z,4.43
2023-01-21T12:28:28.341Z,4.21
2023-01-21T12:30:58.506Z,4.25
2023-01-21T12:33:31.956Z,4.41
2023-01-21T12:36:04.067Z,4.03
2023-01-21T12:38:43.378Z,4.15
2023-01-21T12:41:27.807Z,4.07
2023-01-21T12:44:24.920Z,3.96
2023-01-21T12:46:55.157Z,4.10
2023-01-21T12:49:51.187Z,4.07
2023-01-21T12:53:05.382Z,4.21
2023-01-21T12:55:59.265Z,4.24
2023-01-21T12:58:32.100Z,4.14
2023-01-21T13:01:06.362Z,4.44
2023-01-21T13:04:20.845Z,4.60
2023-01-21T13:06:59.210Z,4.66
2023-01-21T13:09:38.932Z,4.31
2023-01-21T13:12:19.131Z,4.17
2023-01-21T13:14:57.102Z,4.28
2023-01-21T13:17:31.326Z,4.35
2023-01-21T13:19:59.269Z,4.25
2023-01-21T13:22:45.847Z,4.12
2023-01-21T13:25:42.391Z,4.60
2023-01-21T13:28:35.593Z,4.82
2023-01-21T13:31:11.492Z,4.84
2023-01-21T13:34:07.689Z,4.91
2023-01-21T13:36:46.696Z,4.99
2023-01-21T13:39:28.235Z,5.15
2023-01-21T13:42:26.827Z,4.69
2023-01-21T13:45:24.646Z,4.40
2023-01-21T13:48:15.244Z,4.93
2023-01-21T13:51:10.471Z,4.54
2023-01-21T13:53:43.733Z,4.54
2023-01-21T13:56:29.706Z,4.62
2023-01-21T13:59:05.105Z,4.46
2023-01-21T14:01:39.126Z,4.52
2023-01-21T14:04:40.260Z,4.57
2023-01-21T14:07:28.934Z,4.53
2023-01-21T14:10:36.956Z,4.59
2023-01-21T14:13:38.424Z,4.67
2023-01-21T14:16:30.221Z,4.60
2023-01-21T14:19:24.727Z,4.73
2023-01-21T14:22:21.852Z,4.00
2023-01-21T14:25:07.564Z,4.20
2023-01-21T14:27:52.529Z,4.48
2023-01-21T14:30:47.295Z,3.99
2023-01-21T14:33:20.844Z,4.09
2023-01-21T14:36:15.801Z,4.18
2023-01-21T14:39:08.394Z,4.49
2023-01-21T14:42:01.877Z,4.02
2023-01-21T14:44:36.342Z,4.58
2023-01-21T14:47:23.042Z,4.58
2023-01-21T14:49:52.941Z,4.47
2023-01-21T14:52:46.493Z,4.27
2023-01-21T14:55:34.210Z,4.47
2023-01-21T14:58:02.048Z,4.88
2023-01-21T15:00:35.688Z,4.97
2023-01-21T15:03:02.972Z,4.90
2023-01-21T15:05:35.837Z,4.71
2023-01-21T15:08:24.137Z,4.48
2023-01-21T15:11:03.764Z,4.43
2023-01-21T15:13:34.508Z,4.58
2023-01-21T15:16:32.819Z,4.86
2023-01-21T15:19:09.519Z,4.56
2023-01-21T15:21:43.477Z,4.71
2023-01-21T15:24:35.515Z,4.54
2023-01-21T15:27:23.749Z,4.59
2023-01-21T15:32:53.839Z,4.47
2023-01-21T15:35:33.570Z,4.42
2023-01-21T15:38:13.454Z,4.75
2023-01-21T15:40:44.404Z,4.91
2023-01-21T15:43:36.679Z,4.92
2023-01-21T15:46:28.180Z,4.99
2023-01-21T15:49:14.359Z,4.86
2023-01-21T15:51:56.794Z,4.86
2023-01-21T15:54:30.403Z,4.83
2023-01-21T15:57:26.099Z,4.62
2023-01-21T16:00:21.831Z,4.63
2023-01-21T16:03:45.781Z,4.70
2023-01-21T16:06:29.611Z,4.92
2023-01-21T16:09:07.524Z,4.54
2023-01-21T16:12:01.310Z,4.59
2023-01-21T16:14:55.491Z,4.56
2023-01-21T16:17:45.580Z,4.52
2023-01-21T16:20:13.467Z,4.58
2023-01-21T16:22:44.026Z,4.93
2023-01-21T16:25:18.374Z,4.62
2023-01-21T16:27:48.736Z,4.51
2023-01-21T16:30:27.927Z,4.56
2023-01-21T16:33:15.772Z,4.51
2023-01-21T16:35:56.041Z,4.50
2023-01-21T16:38:31.573Z,4.67
2023-01-21T16:41:07.520Z,4.80
2023-01-21T16:46:40.242Z,4.63
2023-01-21T16:49:14.843Z,4.57
2023-01-21T16:51:52.274Z,4.32
2023-01-21T16:54:33.577Z,4.68
2023-01-21T16:57:20.314Z,4.53
2023-01-21T16:59:52.842Z,4.47
2023-01-21T17:02:28.655Z,4.83
2023-01-21T17:04:58.828Z,4.74
2023-01-21T17:07:37.413Z,4.69
2023-01-21T17:10:06.097Z,4.45
2023-01-21T17:12:36.343Z,4.71
2023-01-21T17:15:41.722Z,4.51
2023-01-21T17:18:19.467Z,4.80
2023-01-21T17:21:15.650Z,4.83
2023-01-21T17:23:54.787Z,4.50
2023-01-21T17:26:47.332Z,4.78
2023-01-21T17:29:35.138Z,4.81
2023-01-21T17:32:08.225Z,4.53
2023-01-21T17:34:39.880Z,4.52
2023-01-21T17:37:48.229Z,4.84
2023-01-21T17:40:46.068Z,4.83
2023-01-21T17:43:22.757Z,4.81
2023-01-21T17:45:51.752Z,4.60
2023-01-21T17:48:32.309Z,4.60
2023-01-21T17:51:14.850Z,4.54
2023-01-21T17:53:46.314Z,4.93
2023-01-21T17:56:13.881Z,4.59
2023-01-21T17:58:52.274Z,4.78
2023-01-21T18:01:21.484Z,4.60
2023-01-21T18:03:48.897Z,4.27
2023-01-21T18:06:27.441Z,4.34
2023-01-21T18:08:56.972Z,4.36
2023-01-21T18:11:24.657Z,4.57
2023-01-21T18:13:52.584Z,4.21
2023-01-21T18:16:20.099Z,4.30
2023-01-21T18:18:49.360Z,4.38
2023-01-21T18:21:21.188Z,4.77
2023-01-21T18:23:49.228Z,4.63
2023-01-21T18:26:29.109Z,4.70
2023-01-21T18:28:56.570Z,4.59
2023-01-21T18:31:24.083Z,4.38
2023-01-21T18:33:51.663Z,4.66
2023-01-21T18:36:19.000Z,4.55
2023-01-21T18:38:46.375Z,4.71
2023-01-21T18:41:13.786Z,4.39
2023-01-21T18:43:42.020Z,4.56
2023-01-21T18:46:16.471Z,4.68
2023-01-21T18:48:43.980Z,4.59
2023-01-21T18:51:11.868Z,4.50
2023-01-21T18:53:39.654Z,4.61
2023-01-21T18:56:13.193Z,4.70
2023-01-21T18:58:40.567Z,4.79
2023-01-21T19:01:21.439Z,4.72
2023-01-21T19:03:50.659Z,4.66
2023-01-21T19:06:18.145Z,4.66
2023-01-21T19:08:46.121Z,4.68
2023-01-21T19:11:13.958Z,4.89
2023-01-21T19:13:41.392Z,4.82
2023-01-21T19:16:17.535Z,5.01
2023-01-21T19:18:45.393Z,4.83
2023-01-21T19:21:13.073Z,4.64
2023-01-21T19:23:40.464Z,4.78
2023-01-21T19:26:09.843Z,4.82
2023-01-21T19:28:37.182Z,4.79
2023-01-21T19:31:04.685Z,4.64
2023-01-21T19:33:32.270Z,4.88
2023-01-21T19:36:15.042Z,4.98
2023-01-21T19:38:44.545Z,4.53
2023-01-21T19:41:11.921Z,4.64
2023-01-21T19:43:39.446Z,4.58
2023-01-21T19:46:11.709Z,4.74
2023-01-21T19:48:39.754Z,4.83
2023-01-21T19:51:07.308Z,4.83
2023-01-21T19:53:34.759Z,4.83
2023-01-21T19:56:03.983Z,4.72
2023-01-21T19:58:32.093Z,4.81
2023-01-21T20:00:59.573Z,4.54
2023-01-21T20:03:29.031Z,4.76
2023-01-21T20:06:03.490Z,4.94
2023-01-21T20:08:31.526Z,4.68
2023-01-21T20:10:58.983Z,4.67
2023-01-21T20:13:28.458Z,4.67
2023-01-21T20:15:55.884Z,4.80
2023-01-21T20:18:26.064Z,4.88
2023-01-21T20:20:54.097Z,4.78
2023-01-21T20:23:23.039Z,4.71
2023-01-21T20:25:59.985Z,4.92
2023-01-21T20:28:36.373Z,4.87
2023-01-21T20:31:06.618Z,4.77
2023-01-21T20:33:35.099Z,5.04
2023-01-21T20:36:04.865Z,4.78
2023-01-21T20:38:34.989Z,4.70
2023-01-21T20:41:04.753Z,4.56
2023-01-21T20:43:32.437Z,4.49
2023-01-21T20:46:05.106Z,4.79
2023-01-21T20:48:36.293Z,5.03
2023-01-21T20:51:04.432Z,4.69
2023-01-21T20:53:31.917Z,4.63
2023-01-21T20:56:01.037Z,4.78
2023-01-21T20:58:28.535Z,4.63
2023-01-21T21:00:56.034Z,4.66
2023-01-21T21:03:23.441Z,4.88
2023-01-21T21:05:50.824Z,4.73
2023-01-21T21:08:21.481Z,4.80
2023-01-21T21:10:52.918Z,4.69
2023-01-21T21:13:20.263Z,4.76
2023-01-21T21:15:48.646Z,4.88
2023-01-21T21:18:16.045Z,4.78
2023-01-21T21:20:43.424Z,4.69
2023-01-21T21:23:16.124Z,4.72
2023-01-21T21:25:48.162Z,4.78
2023-01-21T21:28:17.251Z,4.79
2023-01-21T21:30:44.886Z,4.74
2023-01-21T21:33:19.497Z,4.89
2023-01-21T21:35:47.430Z,4.86
2023-01-21T21:38:21.907Z,4.72
2023-01-21T21:40:52.965Z,4.70
2023-01-21T21:43:35.615Z,4.83
2023-01-21T21:46:28.576Z,4.78
2023-01-21T21:48:55.532Z,5.15
2023-01-21T21:51:23.314Z,4.73
2023-01-21T21:53:51.076Z,4.72
2023-01-21T21:56:23.491Z,4.87
2023-01-21T21:58:51.860Z,4.71
2023-01-21T22:01:22.775Z,4.77
2023-01-21T22:03:50.919Z,4.83
2023-01-21T22:06:20.728Z,3.94
2023-01-21T22:08:48.707Z,4.65
2023-01-21T22:11:21.065Z,4.51
2023-01-21T22:13:50.232Z,4.77
2023-01-21T22:16:23.756Z,4.79
2023-01-21T22:18:51.891Z,4.56
2023-01-21T22:21:25.758Z,4.15
2023-01-21T22:23:53.852Z,4.65
2023-01-21T22:26:24.800Z,4.79
2023-01-21T22:28:52.674Z,4.48
2023-01-21T22:31:28.428Z,4.67
2023-01-21T22:33:56.650Z,4.00
2023-01-21T22:36:25.970Z,4.10
2023-01-21T22:38:53.829Z,4.26
2023-01-21T22:41:23.329Z,4.62
2023-01-21T22:43:51.682Z,4.71
2023-01-21T22:46:26.533Z,4.55
2023-01-21T22:48:54.468Z,4.58
2023-01-21T22:51:23.001Z,4.73
2023-01-21T22:53:51.174Z,4.95
2023-01-21T22:56:25.355Z,4.93
2023-01-21T22:58:59.337Z,4.75
2023-01-21T23:01:31.582Z,4.89
2023-01-21T23:03:59.298Z,5.00
2023-01-21T23:06:27.068Z,4.65
2023-01-21T23:08:54.517Z,4.67
2023-01-21T23:11:22.102Z,4.73
2023-01-21T23:13:49.814Z,4.83
2023-01-21T23:16:18.697Z,4.68
2023-01-21T23:18:46.253Z,4.73
2023-01-21T23:21:18.194Z,5.00
2023-01-21T23:23:45.622Z,4.69
2023-01-21T23:26:14.086Z,4.92
2023-01-21T23:28:41.590Z,4.78
2023-01-21T23:31:13.554Z,4.92
2023-01-21T23:33:41.595Z,4.88
2023-01-21T23:36:12.727Z,4.82
2023-01-21T23:38:41.042Z,4.89
2023-01-21T23:41:10.572Z,4.82
2023-01-21T23:43:38.140Z,4.80
2023-01-21T23:46:08.049Z,4.86
2023-01-21T23:48:35.464Z,4.77
2023-01-21T23:51:08.283Z,5.03
2023-01-21T23:53:35.816Z,4.92
2023-01-21T23:56:15.744Z,5.13
2023-01-21T23:58:43.258Z,4.86
